Hauptseite
METAR-TAF:

METAR-TAF

Flughäfen :

Flughafen Nürnberg

Nürnberg, Deutschland

Breite: 49-30N, Länge: 011-03E, Höhe: 318 m

Beobachtung

Neuester Wetterbericht von vor 32 Minuten, um 03:50 UTC
Wind 3 kt aus Südost, variierte zwischen Ost und Süd/Südost
Temperatur -8°C
Luftfeuchtigkeit 92%
Luftdruck 1020 hPa
Sichtweite 10 km oder mehr
Aufgelockert bewölkt in der Höhe von 2600 ft

METAR: EDDN 210350Z 14003KT 090V160 9999 SCT026 M08/M09 Q1020

Zeit: 05:22 (04:22 UTC)

Prognose

Neuester Wetterbericht von vor 5 Stunden und 22 Minuten, um 23:00 UTC
Gültige Prognose vom 21 um 00 UTC bis 21 um 24 UTC
Wind 3 kt aus unterschiedlichen Richtungen
Sichtweite 10 km oder mehr
Leicht bewölkt in der Höhe von 2000 ft
Wahrscheinlichkeit 30% :
Zeitweise
vom 21 um 00 UTC bis 21 um 10 UTC
Durchbrochene Bewölkung in der Höhe von 1200 ft

TAF: EDDN 202300Z 2100/2124 VRB03KT 9999 FEW020 PROB30 TEMPO 2100/2110 BKN012

Wetterbeobachtungen und Prognosen von mehr als 4000 Flughäfen (METAR und TAF Bericht).

Die verfügbaren Stationen werden durch gelbe und rote Markierungen auf der Karte dargestellt.

Führen Sie die Maus auf sie, um den Namen der Station zu sehen.

Darauf klicken, um die Beobachtung von Wetterbeobachtungen und Prognosen zu sehen.

Um die Karte zu ändern : klicken Sie auf den grünen Tasten mit einem schwarzen Kreuz Zum Vergrößern, auf den grünen Button mit einem Gedankenstrich zu verkleinern, oder auf die grünen Pfeile für benachbarte Karten.


METAR-TAF: